sensor_id;sensor_type;location;lat;lon;timestamp;temperature;humidity
20139;DHT22;10230;51.502;10.800;2023-03-01T00:01:40;-0.10;99.90
20139;DHT22;10230;51.502;10.800;2023-03-01T00:04:05;-0.10;99.90
20139;DHT22;10230;51.502;10.800;2023-03-01T00:06:31;-0.10;99.90
20139;DHT22;10230;51.502;10.800;2023-03-01T00:08:57;-0.10;99.90
20139;DHT22;10230;51.502;10.800;2023-03-01T00:11:26;-0.20;99.90
20139;DHT22;10230;51.502;10.800;2023-03-01T00:13:54;-0.10;99.90
20139;DHT22;10230;51.502;10.800;2023-03-01T00:16:24;-0.20;99.90
20139;DHT22;10230;51.502;10.800;2023-03-01T00:18:50;-0.20;99.90
20139;DHT22;10230;51.502;10.800;2023-03-01T00:21:16;-0.20;99.90
20139;DHT22;10230;51.502;10.800;2023-03-01T00:23:42;-0.20;99.90
20139;DHT22;10230;51.502;10.800;2023-03-01T00:26:11;-0.20;99.90
20139;DHT22;10230;51.502;10.800;2023-03-01T00:28:37;-0.20;99.90
20139;DHT22;10230;51.502;10.800;2023-03-01T00:31:05;-0.30;99.90
20139;DHT22;10230;51.502;10.800;2023-03-01T00:33:31;-0.30;99.90
20139;DHT22;10230;51.502;10.800;2023-03-01T00:36:00;-0.30;99.90
20139;DHT22;10230;51.502;10.800;2023-03-01T00:38:26;-0.30;99.90
20139;DHT22;10230;51.502;10.800;2023-03-01T00:40:52;-0.30;99.90
20139;DHT22;10230;51.502;10.800;2023-03-01T00:43:18;-0.30;99.90
20139;DHT22;10230;51.502;10.800;2023-03-01T00:45:44;-0.40;99.90
20139;DHT22;10230;51.502;10.800;2023-03-01T00:48:09;-0.40;99.90
20139;DHT22;10230;51.502;10.800;2023-03-01T00:50:35;-0.40;99.90
20139;DHT22;10230;51.502;10.800;2023-03-01T00:53:01;-0.40;99.90
20139;DHT22;10230;51.502;10.800;2023-03-01T00:55:26;-0.40;99.90
20139;DHT22;10230;51.502;10.800;2023-03-01T00:57:52;-0.40;99.90
20139;DHT22;10230;51.502;10.800;2023-03-01T01:00:19;-0.50;99.90
20139;DHT22;10230;51.502;10.800;2023-03-01T01:02:45;-0.40;99.90
20139;DHT22;10230;51.502;10.800;2023-03-01T01:05:11;-0.40;99.90
20139;DHT22;10230;51.502;10.800;2023-03-01T01:07:37;-0.50;99.90
20139;DHT22;10230;51.502;10.800;2023-03-01T01:10:03;-0.50;99.90
20139;DHT22;10230;51.502;10.800;2023-03-01T01:12:29;-0.50;99.90
20139;DHT22;10230;51.502;10.800;2023-03-01T01:14:54;-0.50;99.90
20139;DHT22;10230;51.502;10.800;2023-03-01T01:17:20;-0.50;99.90
20139;DHT22;10230;51.502;10.800;2023-03-01T01:19:46;-0.50;99.90
20139;DHT22;10230;51.502;10.800;2023-03-01T01:22:11;-0.50;99.90
20139;DHT22;10230;51.502;10.800;2023-03-01T01:24:37;-0.50;99.90
20139;DHT22;10230;51.502;10.800;2023-03-01T01:27:03;-0.50;99.90
20139;DHT22;10230;51.502;10.800;2023-03-01T01:29:28;-0.60;99.90
20139;DHT22;10230;51.502;10.800;2023-03-01T01:31:54;-0.60;99.90
20139;DHT22;10230;51.502;10.800;2023-03-01T01:34:21;-0.60;99.90
20139;DHT22;10230;51.502;10.800;2023-03-01T01:36:52;-0.60;99.90
20139;DHT22;10230;51.502;10.800;2023-03-01T01:39:21;-0.60;99.90
20139;DHT22;10230;51.502;10.800;2023-03-01T01:41:48;-0.60;99.90
20139;DHT22;10230;51.502;10.800;2023-03-01T01:44:22;-0.60;99.90
20139;DHT22;10230;51.502;10.800;2023-03-01T01:46:59;-0.60;99.90
20139;DHT22;10230;51.502;10.800;2023-03-01T01:52:11;-0.60;99.90
20139;DHT22;10230;51.502;10.800;2023-03-01T01:54:44;-0.60;99.90
20139;DHT22;10230;51.502;10.800;2023-03-01T01:57:22;-0.60;99.90
20139;DHT22;10230;51.502;10.800;2023-03-01T01:59:52;-0.60;99.90
20139;DHT22;10230;51.502;10.800;2023-03-01T02:02:19;-0.60;99.90
20139;DHT22;10230;51.502;10.800;2023-03-01T02:04:47;-0.50;99.90
20139;DHT22;10230;51.502;10.800;2023-03-01T02:07:19;-0.50;99.90
20139;DHT22;10230;51.502;10.800;2023-03-01T02:09:47;-0.50;99.90
20139;DHT22;10230;51.502;10.800;2023-03-01T02:12:15;-0.40;99.90
20139;DHT22;10230;51.502;10.800;2023-03-01T02:14:42;-0.40;99.90
20139;DHT22;10230;51.502;10.800;2023-03-01T02:17:09;-0.40;99.90
20139;DHT22;10230;51.502;10.800;2023-03-01T02:22:24;-0.30;99.90
20139;DHT22;10230;51.502;10.800;2023-03-01T02:27:46;-0.20;99.90
20139;DHT22;10230;51.502;10.800;2023-03-01T02:30:13;-0.20;99.90
20139;DHT22;10230;51.502;10.800;2023-03-01T02:32:42;-0.20;99.90
20139;DHT22;10230;51.502;10.800;2023-03-01T02:35:12;-0.20;99.90
20139;DHT22;10230;51.502;10.800;2023-03-01T02:37:39;-0.20;99.90
20139;DHT22;10230;51.502;10.800;2023-03-01T02:40:08;-0.20;99.90
20139;DHT22;10230;51.502;10.800;2023-03-01T02:42:43;-0.30;99.90
20139;DHT22;10230;51.502;10.800;2023-03-01T02:45:12;-0.30;99.90
20139;DHT22;10230;51.502;10.800;2023-03-01T02:47:38;-0.40;99.90
20139;DHT22;10230;51.502;10.800;2023-03-01T02:53:01;-0.50;99.90
20139;DHT22;10230;51.502;10.800;2023-03-01T02:55:28;-0.50;99.90
20139;DHT22;10230;51.502;10.800;2023-03-01T02:57:55;-0.50;99.90
20139;DHT22;10230;51.502;10.800;2023-03-01T03:00:26;-0.60;99.90
20139;DHT22;10230;51.502;10.800;2023-03-01T03:02:54;-0.60;99.90
20139;DHT22;10230;51.502;10.800;2023-03-01T03:05:30;-0.60;99.90
20139;DHT22;10230;51.502;10.800;2023-03-01T03:07:57;-0.60;99.90
20139;DHT22;10230;51.502;10.800;2023-03-01T03:10:29;-0.60;99.90
20139;DHT22;10230;51.502;10.800;2023-03-01T03:12:59;-0.60;99.90
20139;DHT22;10230;51.502;10.800;2023-03-01T03:15:25;-0.60;99.90
20139;DHT22;10230;51.502;10.800;2023-03-01T03:17:52;-0.60;99.90
20139;DHT22;10230;51.502;10.800;2023-03-01T03:20:20;-0.50;99.90
20139;DHT22;10230;51.502;10.800;2023-03-01T03:22:51;-0.50;99.90
20139;DHT22;10230;51.502;10.800;2023-03-01T03:25:18;-0.50;99.90
20139;DHT22;10230;51.502;10.800;2023-03-01T03:27:46;-0.50;99.90
20139;DHT22;10230;51.502;10.800;2023-03-01T03:30:16;-0.50;99.90
20139;DHT22;10230;51.502;10.800;2023-03-01T03:32:44;-0.60;99.90
20139;DHT22;10230;51.502;10.800;2023-03-01T03:35:19;-0.60;99.90
20139;DHT22;10230;51.502;10.800;2023-03-01T03:37:45;-0.60;99.90
20139;DHT22;10230;51.502;10.800;2023-03-01T03:40:36;-0.70;99.90
20139;DHT22;10230;51.502;10.800;2023-03-01T03:43:04;-0.80;99.90
20139;DHT22;10230;51.502;10.800;2023-03-01T03:45:31;-0.80;99.90
20139;DHT22;10230;51.502;10.800;2023-03-01T03:47:59;-0.80;99.90
20139;DHT22;10230;51.502;10.800;2023-03-01T03:50:25;-0.90;99.90
20139;DHT22;10230;51.502;10.800;2023-03-01T03:52:51;-0.90;99.90
20139;DHT22;10230;51.502;10.800;2023-03-01T03:55:17;-0.90;99.90
20139;DHT22;10230;51.502;10.800;2023-03-01T03:57:45;-0.90;99.90
20139;DHT22;10230;51.502;10.800;2023-03-01T04:00:18;-0.90;99.90
20139;DHT22;10230;51.502;10.800;2023-03-01T04:02:44;-0.90;99.90
20139;DHT22;10230;51.502;10.800;2023-03-01T04:05:12;-1.00;99.90
20139;DHT22;10230;51.502;10.800;2023-03-01T04:07:38;-1.00;99.90
20139;DHT22;10230;51.502;10.800;2023-03-01T04:10:06;-1.10;99.90
20139;DHT22;10230;51.502;10.800;2023-03-01T04:12:33;-1.10;99.90
20139;DHT22;10230;51.502;10.800;2023-03-01T04:15:03;-1.20;99.90
20139;DHT22;10230;51.502;10.800;2023-03-01T04:17:39;-1.20;99.90
20139;DHT22;10230;51.502;10.800;2023-03-01T04:20:05;-1.20;99.90
20139;DHT22;10230;51.502;10.800;2023-03-01T04:22:33;-1.30;99.90
20139;DHT22;10230;51.502;10.800;2023-03-01T04:24:59;-1.30;99.90
20139;DHT22;10230;51.502;10.800;2023-03-01T04:27:34;-1.30;99.90
20139;DHT22;10230;51.502;10.800;2023-03-01T04:30:01;-1.30;99.90
20139;DHT22;10230;51.502;10.800;2023-03-01T04:32:26;-1.40;99.90
20139;DHT22;10230;51.502;10.800;2023-03-01T04:34:52;-1.40;99.90
20139;DHT22;10230;51.502;10.800;2023-03-01T04:37:18;-1.40;99.90
20139;DHT22;10230;51.502;10.800;2023-03-01T04:39:43;-1.40;99.90
20139;DHT22;10230;51.502;10.800;2023-03-01T04:42:13;-1.50;99.90
20139;DHT22;10230;51.502;10.800;2023-03-01T04:44:39;-1.50;99.90
20139;DHT22;10230;51.502;10.800;2023-03-01T04:47:04;-1.50;99.90
20139;DHT22;10230;51.502;10.800;2023-03-01T04:49:30;-1.50;99.90
20139;DHT22;10230;51.502;10.800;2023-03-01T04:51:56;-1.50;99.90
20139;DHT22;10230;51.502;10.800;2023-03-01T04:54:28;-1.50;99.90
20139;DHT22;10230;51.502;10.800;2023-03-01T04:56:54;-1.60;99.90
20139;DHT22;10230;51.502;10.800;2023-03-01T04:59:20;-1.60;99.90
20139;DHT22;10230;51.502;10.800;2023-03-01T05:01:52;-1.60;99.90
20139;DHT22;10230;51.502;10.800;2023-03-01T05:04:21;-1.60;99.90
20139;DHT22;10230;51.502;10.800;2023-03-01T05:06:47;-1.60;99.90
20139;DHT22;10230;51.502;10.800;2023-03-01T05:09:12;-1.60;99.90
20139;DHT22;10230;51.502;10.800;2023-03-01T05:11:38;-1.60;99.90
20139;DHT22;10230;51.502;10.800;2023-03-01T05:14:07;-1.60;99.90
20139;DHT22;10230;51.502;10.800;2023-03-01T05:16:34;-1.60;99.90
20139;DHT22;10230;51.502;10.800;2023-03-01T05:19:00;-1.60;99.90
20139;DHT22;10230;51.502;10.800;2023-03-01T05:21:26;-1.60;99.90
20139;DHT22;10230;51.502;10.800;2023-03-01T05:23:52;-1.60;99.90
20139;DHT22;10230;51.502;10.800;2023-03-01T05:26:19;-1.60;99.90
20139;DHT22;10230;51.502;10.800;2023-03-01T05:28:47;-1.60;99.90
20139;DHT22;10230;51.502;10.800;2023-03-01T05:31:13;-1.60;99.90
20139;DHT22;10230;51.502;10.800;2023-03-01T05:33:40;-1.60;99.90
20139;DHT22;10230;51.502;10.800;2023-03-01T05:36:07;-1.60;99.90
20139;DHT22;10230;51.502;10.800;2023-03-01T05:38:33;-1.60;99.90
20139;DHT22;10230;51.502;10.800;2023-03-01T05:40:59;-1.60;99.90
20139;DHT22;10230;51.502;10.800;2023-03-01T05:43:25;-1.60;99.90
20139;DHT22;10230;51.502;10.800;2023-03-01T05:45:51;-1.60;99.90
20139;DHT22;10230;51.502;10.800;2023-03-01T05:48:16;-1.60;99.90
20139;DHT22;10230;51.502;10.800;2023-03-01T05:50:45;-1.60;99.90
20139;DHT22;10230;51.502;10.800;2023-03-01T05:53:13;-1.60;99.90
20139;DHT22;10230;51.502;10.800;2023-03-01T05:55:41;-1.60;99.90
20139;DHT22;10230;51.502;10.800;2023-03-01T05:58:12;-1.60;99.90
20139;DHT22;10230;51.502;10.800;2023-03-01T06:00:39;-1.60;99.90
20139;DHT22;10230;51.502;10.800;2023-03-01T06:03:05;-1.60;99.90
20139;DHT22;10230;51.502;10.800;2023-03-01T06:05:31;-1.60;99.90
20139;DHT22;10230;51.502;10.800;2023-03-01T06:08:00;-1.60;99.90
20139;DHT22;10230;51.502;10.800;2023-03-01T06:10:26;-1.60;99.90
20139;DHT22;10230;51.502;10.800;2023-03-01T06:12:52;-1.60;99.90
20139;DHT22;10230;51.502;10.800;2023-03-01T06:15:18;-1.50;99.90
20139;DHT22;10230;51.502;10.800;2023-03-01T06:17:45;-1.50;99.90
20139;DHT22;10230;51.502;10.800;2023-03-01T06:20:19;-1.40;99.90
20139;DHT22;10230;51.502;10.800;2023-03-01T06:22:45;-1.40;99.90
20139;DHT22;10230;51.502;10.800;2023-03-01T06:25:14;-1.30;99.90
20139;DHT22;10230;51.502;10.800;2023-03-01T06:27:40;-1.30;99.90
20139;DHT22;10230;51.502;10.800;2023-03-01T06:30:07;-1.20;99.90
20139;DHT22;10230;51.502;10.800;2023-03-01T06:32:33;-1.20;99.90
20139;DHT22;10230;51.502;10.800;2023-03-01T06:34:58;-1.10;99.90
20139;DHT22;10230;51.502;10.800;2023-03-01T06:37:25;-1.00;99.90
20139;DHT22;10230;51.502;10.800;2023-03-01T06:39:51;-1.00;99.90
20139;DHT22;10230;51.502;10.800;2023-03-01T06:42:17;-0.90;99.90
20139;DHT22;10230;51.502;10.800;2023-03-01T06:44:43;-0.80;99.90
20139;DHT22;10230;51.502;10.800;2023-03-01T06:47:09;-0.70;99.90
20139;DHT22;10230;51.502;10.800;2023-03-01T06:49:35;-0.60;99.90
20139;DHT22;10230;51.502;10.800;2023-03-01T06:52:00;-0.50;99.90
20139;DHT22;10230;51.502;10.800;2023-03-01T06:54:26;-0.40;99.90
20139;DHT22;10230;51.502;10.800;2023-03-01T06:56:51;-0.30;99.90
20139;DHT22;10230;51.502;10.800;2023-03-01T06:59:17;-0.10;99.90
20139;DHT22;10230;51.502;10.800;2023-03-01T07:01:43;0.10;99.90
20139;DHT22;10230;51.502;10.800;2023-03-01T07:04:10;0.30;99.90
20139;DHT22;10230;51.502;10.800;2023-03-01T07:06:36;0.60;99.90
20139;DHT22;10230;51.502;10.800;2023-03-01T07:18:47;4.90;99.90
20139;DHT22;10230;51.502;10.800;2023-03-01T07:21:14;5.10;99.90
20139;DHT22;10230;51.502;10.800;2023-03-01T07:23:39;6.60;99.90
20139;DHT22;10230;51.502;10.800;2023-03-01T07:26:05;8.40;99.90
20139;DHT22;10230;51.502;10.800;2023-03-01T07:28:31;12.00;99.90
20139;DHT22;10230;51.502;10.800;2023-03-01T07:31:02;12.20;99.90
20139;DHT22;10230;51.502;10.800;2023-03-01T07:36:02;15.50;99.90
20139;DHT22;10230;51.502;10.800;2023-03-01T07:38:28;17.10;74.90
20139;DHT22;10230;51.502;10.800;2023-03-01T08:27:17;31.30;29.10
20139;DHT22;10230;51.502;10.800;2023-03-01T08:29:42;31.70;27.60
20139;DHT22;10230;51.502;10.800;2023-03-01T08:34:34;32.10;31.40
20139;DHT22;10230;51.502;10.800;2023-03-01T08:37:01;32.50;47.20
20139;DHT22;10230;51.502;10.800;2023-03-01T08:39:27;32.80;31.50
20139;DHT22;10230;51.502;10.800;2023-03-01T08:41:53;33.00;30.70
20139;DHT22;10230;51.502;10.800;2023-03-01T08:44:19;33.40;36.40
20139;DHT22;10230;51.502;10.800;2023-03-01T08:46:47;34.10;30.50
20139;DHT22;10230;51.502;10.800;2023-03-01T08:49:18;34.10;33.50
20139;DHT22;10230;51.502;10.800;2023-03-01T08:51:45;34.10;45.70
20139;DHT22;10230;51.502;10.800;2023-03-01T08:54:13;34.10;46.20
20139;DHT22;10230;51.502;10.800;2023-03-01T08:56:40;34.20;46.20
20139;DHT22;10230;51.502;10.800;2023-03-01T08:59:06;34.50;52.00
20139;DHT22;10230;51.502;10.800;2023-03-01T09:01:32;34.90;57.20
20139;DHT22;10230;51.502;10.800;2023-03-01T09:03:58;34.50;56.60
20139;DHT22;10230;51.502;10.800;2023-03-01T09:06:24;34.00;50.00
20139;DHT22;10230;51.502;10.800;2023-03-01T09:08:50;33.70;42.10
20139;DHT22;10230;51.502;10.800;2023-03-01T09:11:20;33.70;40.70
20139;DHT22;10230;51.502;10.800;2023-03-01T09:13:48;33.90;40.80
20139;DHT22;10230;51.502;10.800;2023-03-01T09:16:16;34.20;40.80
20139;DHT22;10230;51.502;10.800;2023-03-01T09:18:43;34.10;40.60
20139;DHT22;10230;51.502;10.800;2023-03-01T09:21:16;33.70;38.20
20139;DHT22;10230;51.502;10.800;2023-03-01T09:23:44;33.30;36.30
20139;DHT22;10230;51.502;10.800;2023-03-01T09:26:12;33.10;32.00
20139;DHT22;10230;51.502;10.800;2023-03-01T09:31:06;32.50;47.20
20139;DHT22;10230;51.502;10.800;2023-03-01T09:35:59;32.60;30.50
20139;DHT22;10230;51.502;10.800;2023-03-01T09:38:26;33.00;34.70
20139;DHT22;10230;51.502;10.800;2023-03-01T09:40:52;34.40;44.10
20139;DHT22;10230;51.502;10.800;2023-03-01T09:46:05;34.90;33.80
20139;DHT22;10230;51.502;10.800;2023-03-01T09:48:40;35.20;42.70
20139;DHT22;10230;51.502;10.800;2023-03-01T09:51:12;35.60;53.20
20139;DHT22;10230;51.502;10.800;2023-03-01T09:53:38;35.70;50.80
20139;DHT22;10230;51.502;10.800;2023-03-01T09:56:16;35.80;53.40
20139;DHT22;10230;51.502;10.800;2023-03-01T10:15:18;37.00;41.10
20139;DHT22;10230;51.502;10.800;2023-03-01T10:17:48;36.70;46.20
20139;DHT22;10230;51.502;10.800;2023-03-01T10:27:54;37.70;57.50
20139;DHT22;10230;51.502;10.800;2023-03-01T10:32:53;37.70;59.50
20139;DHT22;10230;51.502;10.800;2023-03-01T10:50:34;36.90;62.30
20139;DHT22;10230;51.502;10.800;2023-03-01T10:53:04;37.70;47.90
20139;DHT22;10230;51.502;10.800;2023-03-01T11:01:01;38.70;48.30
20139;DHT22;10230;51.502;10.800;2023-03-01T11:06:04;37.00;43.40
20139;DHT22;10230;51.502;10.800;2023-03-01T13:21:30;20.00;28.50
20139;DHT22;10230;51.502;10.800;2023-03-01T13:23:56;18.70;37.50
20139;DHT22;10230;51.502;10.800;2023-03-01T13:44:20;14.60;34.60
20139;DHT22;10230;51.502;10.800;2023-03-01T13:46:47;14.10;35.70
20139;DHT22;10230;51.502;10.800;2023-03-01T13:49:16;13.50;36.60
20139;DHT22;10230;51.502;10.800;2023-03-01T13:51:47;13.00;38.00
20139;DHT22;10230;51.502;10.800;2023-03-01T13:54:15;12.70;39.00
20139;DHT22;10230;51.502;10.800;2023-03-01T13:56:42;12.50;39.10
20139;DHT22;10230;51.502;10.800;2023-03-01T13:59:20;12.40;39.60
20139;DHT22;10230;51.502;10.800;2023-03-01T14:01:55;12.20;39.70
20139;DHT22;10230;51.502;10.800;2023-03-01T14:07:18;11.90;41.00
20139;DHT22;10230;51.502;10.800;2023-03-01T14:09:47;11.80;41.10
20139;DHT22;10230;51.502;10.800;2023-03-01T14:20:32;11.60;42.40
20139;DHT22;10230;51.502;10.800;2023-03-01T14:23:02;11.60;42.40
20139;DHT22;10230;51.502;10.800;2023-03-01T14:25:35;11.50;42.60
20139;DHT22;10230;51.502;10.800;2023-03-01T14:30:42;11.30;42.60
20139;DHT22;10230;51.502;10.800;2023-03-01T14:38:43;11.20;43.60
20139;DHT22;10230;51.502;10.800;2023-03-01T14:41:20;11.10;43.60
20139;DHT22;10230;51.502;10.800;2023-03-01T14:43:56;11.10;43.60
20139;DHT22;10230;51.502;10.800;2023-03-01T14:46:31;11.00;43.60
20139;DHT22;10230;51.502;10.800;2023-03-01T14:51:42;10.80;44.10
20139;DHT22;10230;51.502;10.800;2023-03-01T14:54:23;10.80;43.90
20139;DHT22;10230;51.502;10.800;2023-03-01T14:56:50;10.70;44.50
20139;DHT22;10230;51.502;10.800;2023-03-01T14:59:21;10.60;45.10
20139;DHT22;10230;51.502;10.800;2023-03-01T15:01:48;10.60;45.60
20139;DHT22;10230;51.502;10.800;2023-03-01T15:04:14;10.50;45.50
20139;DHT22;10230;51.502;10.800;2023-03-01T15:06:41;10.40;45.80
20139;DHT22;10230;51.502;10.800;2023-03-01T15:09:07;10.30;46.30
20139;DHT22;10230;51.502;10.800;2023-03-01T15:11:37;10.20;46.70
20139;DHT22;10230;51.502;10.800;2023-03-01T15:16:52;10.00;46.50
20139;DHT22;10230;51.502;10.800;2023-03-01T15:19:18;9.80;47.20
20139;DHT22;10230;51.502;10.800;2023-03-01T15:21:47;9.70;48.00
20139;DHT22;10230;51.502;10.800;2023-03-01T15:24:17;9.50;59.60
20139;DHT22;10230;51.502;10.800;2023-03-01T15:26:59;9.40;84.40
20139;DHT22;10230;51.502;10.800;2023-03-01T15:29:33;9.30;49.60
20139;DHT22;10230;51.502;10.800;2023-03-01T15:32:30;9.20;49.60
20139;DHT22;10230;51.502;10.800;2023-03-01T15:35:00;9.10;53.90
20139;DHT22;10230;51.502;10.800;2023-03-01T15:37:37;8.90;53.40
20139;DHT22;10230;51.502;10.800;2023-03-01T15:40:27;8.80;51.50
20139;DHT22;10230;51.502;10.800;2023-03-01T15:43:04;8.80;59.40
20139;DHT22;10230;51.502;10.800;2023-03-01T15:45:34;8.90;60.40
20139;DHT22;10230;51.502;10.800;2023-03-01T15:48:16;8.90;62.00
20139;DHT22;10230;51.502;10.800;2023-03-01T15:50:43;8.90;63.50
20139;DHT22;10230;51.502;10.800;2023-03-01T15:53:13;8.90;65.50
20139;DHT22;10230;51.502;10.800;2023-03-01T15:55:40;8.90;65.40
20139;DHT22;10230;51.502;10.800;2023-03-01T15:58:13;8.80;66.40
20139;DHT22;10230;51.502;10.800;2023-03-01T16:00:38;8.80;67.10
20139;DHT22;10230;51.502;10.800;2023-03-01T16:03:05;8.70;67.80
20139;DHT22;10230;51.502;10.800;2023-03-01T16:05:33;8.60;55.40
20139;DHT22;10230;51.502;10.800;2023-03-01T16:08:04;8.50;55.60
20139;DHT22;10230;51.502;10.800;2023-03-01T16:10:31;8.40;62.40
20139;DHT22;10230;51.502;10.800;2023-03-01T16:12:58;8.30;56.50
20139;DHT22;10230;51.502;10.800;2023-03-01T16:15:28;8.20;58.20
20139;DHT22;10230;51.502;10.800;2023-03-01T16:17:54;8.20;64.20
20139;DHT22;10230;51.502;10.800;2023-03-01T16:25:14;7.80;58.70
20139;DHT22;10230;51.502;10.800;2023-03-01T16:27:44;7.70;76.90
20139;DHT22;10230;51.502;10.800;2023-03-01T16:30:10;7.60;70.90
20139;DHT22;10230;51.502;10.800;2023-03-01T16:37:34;7.20;94.20
20139;DHT22;10230;51.502;10.800;2023-03-01T16:40:00;7.00;92.40
20139;DHT22;10230;51.502;10.800;2023-03-01T16:42:26;6.90;78.60
20139;DHT22;10230;51.502;10.800;2023-03-01T16:44:55;6.80;74.80
20139;DHT22;10230;51.502;10.800;2023-03-01T16:47:21;6.50;90.20
20139;DHT22;10230;51.502;10.800;2023-03-01T16:49:47;6.60;70.40
20139;DHT22;10230;51.502;10.800;2023-03-01T16:52:12;6.40;76.90
20139;DHT22;10230;51.502;10.800;2023-03-01T16:54:38;6.30;76.00
20139;DHT22;10230;51.502;10.800;2023-03-01T16:59:30;6.00;75.50
20139;DHT22;10230;51.502;10.800;2023-03-01T17:01:56;6.00;74.30
20139;DHT22;10230;51.502;10.800;2023-03-01T17:06:47;5.90;71.20
20139;DHT22;10230;51.502;10.800;2023-03-01T17:09:14;5.80;73.00
20139;DHT22;10230;51.502;10.800;2023-03-01T17:11:39;5.70;74.30
20139;DHT22;10230;51.502;10.800;2023-03-01T17:16:31;5.50;92.80
20139;DHT22;10230;51.502;10.800;2023-03-01T17:18:56;5.40;93.70
20139;DHT22;10230;51.502;10.800;2023-03-01T17:21:22;5.40;97.60
20139;DHT22;10230;51.502;10.800;2023-03-01T17:23:48;5.30;95.40
20139;DHT22;10230;51.502;10.800;2023-03-01T17:26:15;5.20;89.60
20139;DHT22;10230;51.502;10.800;2023-03-01T17:28:40;5.20;90.70
20139;DHT22;10230;51.502;10.800;2023-03-01T17:31:08;5.10;92.20
20139;DHT22;10230;51.502;10.800;2023-03-01T17:33:34;5.10;90.60
20139;DHT22;10230;51.502;10.800;2023-03-01T17:36:00;5.00;92.80
20139;DHT22;10230;51.502;10.800;2023-03-01T17:38:26;4.90;94.10
20139;DHT22;10230;51.502;10.800;2023-03-01T17:40:52;4.90;99.90
20139;DHT22;10230;51.502;10.800;2023-03-01T17:43:18;4.80;99.90
20139;DHT22;10230;51.502;10.800;2023-03-01T19:11:15;3.60;99.90
20139;DHT22;10230;51.502;10.800;2023-03-01T19:13:45;3.60;99.90
20139;DHT22;10230;51.502;10.800;2023-03-01T19:16:17;3.50;99.90
20139;DHT22;10230;51.502;10.800;2023-03-01T19:18:44;3.50;99.90
20139;DHT22;10230;51.502;10.800;2023-03-01T19:21:14;3.40;99.90
20139;DHT22;10230;51.502;10.800;2023-03-01T19:23:40;3.40;99.90
20139;DHT22;10230;51.502;10.800;2023-03-01T19:26:09;3.30;99.90
20139;DHT22;10230;51.502;10.800;2023-03-01T19:28:36;3.30;99.90
20139;DHT22;10230;51.502;10.800;2023-03-01T19:31:05;3.30;99.90
20139;DHT22;10230;51.502;10.800;2023-03-01T21:06:16;2.50;99.90
20139;DHT22;10230;51.502;10.800;2023-03-01T21:11:08;2.40;99.90
20139;DHT22;10230;51.502;10.800;2023-03-01T21:13:34;2.40;99.90
20139;DHT22;10230;51.502;10.800;2023-03-01T21:16:10;2.40;99.90
20139;DHT22;10230;51.502;10.800;2023-03-01T21:18:38;2.30;99.90
20139;DHT22;10230;51.502;10.800;2023-03-01T21:21:19;2.30;99.90
20139;DHT22;10230;51.502;10.800;2023-03-01T23:40:39;1.30;99.90
20139;DHT22;10230;51.502;10.800;2023-03-01T23:45:31;1.20;99.90
20139;DHT22;10230;51.502;10.800;2023-03-01T23:50:25;1.10;99.90
